TGL46T LFBZ-LICC
Flight info
| Callsign | TGL46T |
|---|---|
| Flight time | 2h 12m |
| Altitude | 37000 |
| Route | SOVOS G17 ORTEZ DCT TBO DCT PERDU N862 POSSY/N0452F360 M601 BCN N725 ORKUM M603 ELSAG DCT ALG/N0452F370 DCT QUENN DCT RONAB DCT BEKIV/N0404F190 M871 LIBRO |
| Aircraft | A320/M-SDE3FGHIRWY/LB1 |
Departure
| Time | 2026-04-25 09:28 |
|---|---|
| Airport | Biarritz Pays Basque airport (LFBZ) |
Arrival
| Time | 2026-04-25 11:40 |
|---|---|
| Airport | Catania-Fontanarossa Airport (LICC) |
| Time | Latitude | Longitude | Altitude | Speed | Heading |
|---|---|---|---|---|---|
| 2026-04-25 08:32 | 43.47132 | -1.53001 | 256 ft | 0 kts | 359° |
| 2026-04-25 09:12 | 43.47112 | -1.53001 | 256 ft | 4 kts | 356° |
| 2026-04-25 09:12 | 43.47085 | -1.52998 | 256 ft | 4 kts | 359° |
| 2026-04-25 09:12 | 43.47060 | -1.53002 | 256 ft | 4 kts | 41° |
| 2026-04-25 09:12 | 43.47055 | -1.53011 | 256 ft | 0 kts | 88° |
| 2026-04-25 09:16 | 43.47055 | -1.53006 | 256 ft | 3 kts | 88° |
| 2026-04-25 09:16 | 43.47055 | -1.52983 | 255 ft | 3 kts | 88° |
| 2026-04-25 09:17 | 43.47051 | -1.52923 | 255 ft | 5 kts | 112° |
| 2026-04-25 09:17 | 43.47014 | -1.52872 | 255 ft | 8 kts | 138° |
| 2026-04-25 09:17 | 43.46994 | -1.52812 | 254 ft | 8 kts | 99° |
| 2026-04-25 09:18 | 43.46994 | -1.52711 | 254 ft | 10 kts | 89° |
| 2026-04-25 09:18 | 43.46996 | -1.52614 | 253 ft | 10 kts | 89° |
| 2026-04-25 09:18 | 43.46998 | -1.52523 | 252 ft | 9 kts | 88° |
| 2026-04-25 09:18 | 43.46999 | -1.52439 | 252 ft | 9 kts | 89° |
| 2026-04-25 09:19 | 43.46998 | -1.52361 | 251 ft | 8 kts | 90° |
| 2026-04-25 09:19 | 43.46998 | -1.52289 | 250 ft | 7 kts | 89° |
| 2026-04-25 09:19 | 43.46998 | -1.52251 | 250 ft | 0 kts | 94° |
| 2026-04-25 09:20 | 43.46998 | -1.52246 | 250 ft | 4 kts | 96° |
| 2026-04-25 09:20 | 43.46983 | -1.52200 | 250 ft | 5 kts | 127° |
| 2026-04-25 09:21 | 43.46955 | -1.52181 | 250 ft | 4 kts | 168° |
| 2026-04-25 09:21 | 43.46942 | -1.52179 | 250 ft | 0 kts | 177° |
| 2026-04-25 09:24 | 43.46894 | -1.52175 | 249 ft | 14 kts | 173° |
| 2026-04-25 09:25 | 43.46843 | -1.52081 | 249 ft | 12 kts | 95° |
| 2026-04-25 09:25 | 43.46845 | -1.51915 | 248 ft | 21 kts | 89° |
| 2026-04-25 09:25 | 43.46849 | -1.51708 | 245 ft | 23 kts | 89° |
| 2026-04-25 09:25 | 43.46850 | -1.51495 | 245 ft | 24 kts | 89° |
| 2026-04-25 09:26 | 43.46852 | -1.51254 | 242 ft | 25 kts | 89° |
| 2026-04-25 09:26 | 43.46870 | -1.51034 | 242 ft | 20 kts | 60° |
| 2026-04-25 09:26 | 43.46871 | -1.50956 | 242 ft | 7 kts | 147° |
| 2026-04-25 09:26 | 43.46845 | -1.50982 | 241 ft | 4 kts | 263° |
| 2026-04-25 09:27 | 43.46851 | -1.51022 | 242 ft | 8 kts | 281° |
| 2026-04-25 09:27 | 43.46851 | -1.51120 | 242 ft | 13 kts | 268° |
| 2026-04-25 09:27 | 43.46845 | -1.51544 | 245 ft | 81 kts | 269° |
| 2026-04-25 09:27 | 43.46836 | -1.52612 | 256 ft | 140 kts | 269° |
| 2026-04-25 09:28 | 43.46814 | -1.54011 | 819 ft | 143 kts | 269° |
| 2026-04-25 09:28 | 43.46787 | -1.55369 | 1630 ft | 141 kts | 269° |
| 2026-04-25 09:28 | 43.46752 | -1.56761 | 2134 ft | 155 kts | 268° |
| 2026-04-25 09:28 | 43.46705 | -1.58316 | 2571 ft | 169 kts | 268° |
| 2026-04-25 09:29 | 43.46637 | -1.60016 | 2962 ft | 186 kts | 264° |
| 2026-04-25 09:29 | 43.46024 | -1.61671 | 3207 ft | 213 kts | 220° |
| 2026-04-25 09:29 | 43.44575 | -1.62352 | 3681 ft | 234 kts | 178° |
| 2026-04-25 09:29 | 43.43054 | -1.61525 | 4374 ft | 244 kts | 137° |
| 2026-04-25 09:30 | 43.42158 | -1.59554 | 5146 ft | 248 kts | 108° |
| 2026-04-25 09:30 | 43.41863 | -1.58037 | 5663 ft | 249 kts | 99° |
| 2026-04-25 09:30 | 43.41556 | -1.55703 | 6509 ft | 248 kts | 98° |
| 2026-04-25 09:30 | 43.41248 | -1.53364 | 7266 ft | 250 kts | 101° |
| 2026-04-25 09:31 | 43.40876 | -1.51026 | 8018 ft | 251 kts | 104° |
| 2026-04-25 09:31 | 43.40436 | -1.48688 | 8757 ft | 254 kts | 106° |
| 2026-04-25 09:31 | 43.39938 | -1.46343 | 9484 ft | 257 kts | 108° |
| 2026-04-25 09:31 | 43.39468 | -1.43958 | 10213 ft | 261 kts | 99° |
| 2026-04-25 09:32 | 43.39361 | -1.41384 | 10568 ft | 282 kts | 91° |
| 2026-04-25 09:32 | 43.39335 | -1.38579 | 10777 ft | 305 kts | 91° |
| 2026-04-25 09:32 | 43.39307 | -1.35547 | 10956 ft | 329 kts | 91° |
| 2026-04-25 09:32 | 43.39274 | -1.32320 | 11322 ft | 343 kts | 91° |
| 2026-04-25 09:33 | 43.39240 | -1.29011 | 11937 ft | 349 kts | 91° |
| 2026-04-25 09:33 | 43.39203 | -1.25652 | 12599 ft | 354 kts | 91° |
| 2026-04-25 09:33 | 43.39161 | -1.22250 | 13273 ft | 358 kts | 92° |
| 2026-04-25 09:33 | 43.39115 | -1.18813 | 13917 ft | 362 kts | 92° |
| 2026-04-25 09:34 | 43.39069 | -1.15333 | 14500 ft | 365 kts | 91° |
| 2026-04-25 09:34 | 43.39020 | -1.11826 | 15093 ft | 368 kts | 91° |
| 2026-04-25 09:34 | 43.38970 | -1.08294 | 15693 ft | 371 kts | 91° |
| 2026-04-25 09:34 | 43.38918 | -1.04740 | 16295 ft | 373 kts | 91° |
| 2026-04-25 09:35 | 43.38865 | -1.01158 | 16896 ft | 376 kts | 92° |
| 2026-04-25 09:35 | 43.38492 | -0.97601 | 17464 ft | 378 kts | 108° |
| 2026-04-25 09:35 | 43.37344 | -0.94364 | 18006 ft | 379 kts | 126° |
| 2026-04-25 09:35 | 43.35732 | -0.91489 | 18569 ft | 381 kts | 129° |
| 2026-04-25 09:36 | 43.34100 | -0.88657 | 19041 ft | 384 kts | 129° |
| 2026-04-25 09:36 | 43.32431 | -0.85779 | 19548 ft | 386 kts | 129° |
| 2026-04-25 09:36 | 43.30725 | -0.82850 | 20044 ft | 389 kts | 129° |
| 2026-04-25 09:36 | 43.29057 | -0.79982 | 20541 ft | 391 kts | 129° |
| 2026-04-25 09:37 | 43.27359 | -0.77052 | 21026 ft | 393 kts | 129° |
| 2026-04-25 09:37 | 43.25651 | -0.74100 | 21473 ft | 397 kts | 129° |
| 2026-04-25 09:37 | 43.23932 | -0.71129 | 21931 ft | 399 kts | 130° |
| 2026-04-25 09:37 | 43.22198 | -0.68137 | 22375 ft | 402 kts | 130° |
| 2026-04-25 09:38 | 43.20450 | -0.65130 | 22825 ft | 404 kts | 130° |
| 2026-04-25 09:38 | 43.18690 | -0.62106 | 23257 ft | 407 kts | 130° |
| 2026-04-25 09:38 | 43.16920 | -0.59065 | 23695 ft | 409 kts | 130° |
| 2026-04-25 09:38 | 43.15139 | -0.56006 | 24067 ft | 412 kts | 130° |
| 2026-04-25 09:39 | 43.13349 | -0.52932 | 24426 ft | 414 kts | 130° |
| 2026-04-25 09:39 | 43.11548 | -0.49842 | 24773 ft | 416 kts | 130° |
| 2026-04-25 09:39 | 43.09736 | -0.46738 | 25112 ft | 418 kts | 130° |
| 2026-04-25 09:40 | 43.06083 | -0.40499 | 25782 ft | 422 kts | 130° |
| 2026-04-25 09:40 | 43.04240 | -0.37359 | 26106 ft | 424 kts | 130° |
| 2026-04-25 09:40 | 43.02387 | -0.34207 | 26413 ft | 426 kts | 130° |
| 2026-04-25 09:40 | 43.00525 | -0.31041 | 26756 ft | 428 kts | 130° |
| 2026-04-25 09:41 | 42.98653 | -0.27862 | 27084 ft | 430 kts | 130° |
| 2026-04-25 09:41 | 42.96776 | -0.24678 | 27412 ft | 432 kts | 130° |
| 2026-04-25 09:41 | 42.94891 | -0.21478 | 27741 ft | 433 kts | 130° |
| 2026-04-25 09:41 | 42.92998 | -0.18268 | 28063 ft | 435 kts | 130° |
| 2026-04-25 09:42 | 42.91093 | -0.15040 | 28392 ft | 437 kts | 130° |
| 2026-04-25 09:42 | 42.89181 | -0.11807 | 28702 ft | 439 kts | 130° |
| 2026-04-25 09:42 | 42.87259 | -0.08556 | 29010 ft | 441 kts | 130° |
| 2026-04-25 09:42 | 42.85328 | -0.05295 | 29293 ft | 443 kts | 130° |
| 2026-04-25 09:43 | 42.83388 | -0.02021 | 29567 ft | 445 kts | 130° |
| 2026-04-25 09:43 | 42.81439 | 0.01267 | 29820 ft | 448 kts | 130° |
| 2026-04-25 09:43 | 42.79472 | 0.04579 | 30070 ft | 451 kts | 130° |
| 2026-04-25 09:43 | 42.77461 | 0.07861 | 30299 ft | 452 kts | 135° |
| 2026-04-25 09:44 | 42.75115 | 0.10695 | 30526 ft | 451 kts | 146° |
| 2026-04-25 09:44 | 42.72430 | 0.12886 | 30759 ft | 451 kts | 156° |
| 2026-04-25 09:44 | 42.69497 | 0.14369 | 31000 ft | 449 kts | 167° |
| 2026-04-25 09:44 | 42.66435 | 0.15100 | 31333 ft | 446 kts | 177° |
| 2026-04-25 09:45 | 42.63345 | 0.15201 | 31657 ft | 444 kts | 181° |
| 2026-04-25 09:45 | 42.60261 | 0.15228 | 31961 ft | 443 kts | 181° |
| 2026-04-25 09:45 | 42.57184 | 0.15256 | 32314 ft | 441 kts | 181° |
| 2026-04-25 09:45 | 42.54120 | 0.15281 | 32644 ft | 440 kts | 181° |
| 2026-04-25 09:46 | 42.51058 | 0.15304 | 32957 ft | 439 kts | 181° |
| 2026-04-25 09:46 | 42.48004 | 0.15330 | 33284 ft | 439 kts | 180° |
| 2026-04-25 09:46 | 42.44954 | 0.15362 | 33611 ft | 438 kts | 180° |
| 2026-04-25 09:46 | 42.41915 | 0.15394 | 33915 ft | 437 kts | 180° |
| 2026-04-25 09:47 | 42.38876 | 0.15427 | 34216 ft | 437 kts | 180° |
| 2026-04-25 09:47 | 42.35838 | 0.15458 | 34466 ft | 436 kts | 180° |
| 2026-04-25 09:47 | 42.32807 | 0.15485 | 34732 ft | 435 kts | 180° |
| 2026-04-25 09:47 | 42.29782 | 0.15510 | 34992 ft | 434 kts | 180° |
| 2026-04-25 09:48 | 42.26759 | 0.15535 | 35248 ft | 433 kts | 180° |
| 2026-04-25 09:48 | 42.23746 | 0.15562 | 35484 ft | 433 kts | 180° |
| 2026-04-25 09:48 | 42.20741 | 0.15589 | 35732 ft | 432 kts | 180° |
| 2026-04-25 09:48 | 42.17734 | 0.15617 | 35961 ft | 431 kts | 180° |
| 2026-04-25 09:49 | 42.14778 | 0.15647 | 36181 ft | 431 kts | 179° |
| 2026-04-25 09:49 | 42.11802 | 0.16074 | 36397 ft | 431 kts | 167° |
| 2026-04-25 09:49 | 42.08958 | 0.17329 | 36603 ft | 431 kts | 155° |
| 2026-04-25 09:49 | 42.06383 | 0.19382 | 36796 ft | 432 kts | 143° |
| 2026-04-25 09:50 | 42.04191 | 0.22140 | 36975 ft | 433 kts | 130° |
| 2026-04-25 09:50 | 42.02480 | 0.25469 | 37120 ft | 435 kts | 118° |
| 2026-04-25 09:50 | 41.99758 | 0.32727 | 37153 ft | 435 kts | 118° |
| 2026-04-25 09:51 | 41.97028 | 0.39970 | 37153 ft | 434 kts | 118° |
| 2026-04-25 09:51 | 41.94297 | 0.47199 | 37158 ft | 434 kts | 118° |
| 2026-04-25 09:52 | 41.91574 | 0.54428 | 37160 ft | 434 kts | 118° |
| 2026-04-25 09:52 | 41.88836 | 0.61647 | 37159 ft | 434 kts | 118° |
| 2026-04-25 09:53 | 41.86097 | 0.68853 | 37157 ft | 434 kts | 118° |
| 2026-04-25 09:53 | 41.83346 | 0.76053 | 37155 ft | 434 kts | 118° |
| 2026-04-25 09:54 | 41.80596 | 0.83241 | 37150 ft | 433 kts | 118° |
| 2026-04-25 09:54 | 41.77844 | 0.90428 | 37149 ft | 433 kts | 118° |
| 2026-04-25 09:55 | 41.75090 | 0.97603 | 37146 ft | 433 kts | 118° |
| 2026-04-25 09:55 | 41.72330 | 1.04776 | 37146 ft | 433 kts | 118° |
| 2026-04-25 09:56 | 41.69567 | 1.11940 | 37141 ft | 433 kts | 118° |
| 2026-04-25 09:56 | 41.66802 | 1.19099 | 37146 ft | 433 kts | 118° |
| 2026-04-25 09:57 | 41.64031 | 1.26244 | 37145 ft | 432 kts | 118° |
| 2026-04-25 09:57 | 41.61254 | 1.33367 | 37145 ft | 432 kts | 118° |
| 2026-04-25 09:58 | 41.58480 | 1.40488 | 37150 ft | 432 kts | 118° |
| 2026-04-25 09:58 | 41.55701 | 1.47592 | 37150 ft | 432 kts | 118° |
| 2026-04-25 09:59 | 41.52920 | 1.54697 | 37145 ft | 432 kts | 118° |
| 2026-04-25 09:59 | 41.50138 | 1.61789 | 37149 ft | 432 kts | 118° |
| 2026-04-25 10:00 | 41.47352 | 1.68880 | 37152 ft | 432 kts | 118° |
| 2026-04-25 10:00 | 41.44559 | 1.75963 | 37151 ft | 432 kts | 118° |
| 2026-04-25 10:01 | 41.41759 | 1.83037 | 37150 ft | 432 kts | 119° |
| 2026-04-25 10:01 | 41.38939 | 1.90134 | 37139 ft | 434 kts | 119° |
| 2026-04-25 10:02 | 41.36129 | 1.97203 | 37146 ft | 435 kts | 118° |
| 2026-04-25 10:02 | 41.33293 | 2.04326 | 37152 ft | 435 kts | 118° |
| 2026-04-25 10:03 | 41.30692 | 2.11594 | 37160 ft | 436 kts | 109° |
| 2026-04-25 10:03 | 41.29287 | 2.19454 | 37163 ft | 437 kts | 103° |
| 2026-04-25 10:04 | 41.27991 | 2.27353 | 37163 ft | 437 kts | 103° |
| 2026-04-25 10:04 | 41.26684 | 2.35252 | 37160 ft | 437 kts | 103° |
| 2026-04-25 10:05 | 41.25367 | 2.43145 | 37156 ft | 438 kts | 103° |
| 2026-04-25 10:05 | 41.24048 | 2.51039 | 37158 ft | 438 kts | 103° |
| 2026-04-25 10:06 | 41.22724 | 2.58939 | 37157 ft | 438 kts | 103° |
| 2026-04-25 10:06 | 41.21394 | 2.66833 | 37160 ft | 438 kts | 103° |
| 2026-04-25 10:07 | 41.20055 | 2.74729 | 37158 ft | 438 kts | 103° |
| 2026-04-25 10:07 | 41.18709 | 2.82623 | 37158 ft | 438 kts | 103° |
| 2026-04-25 10:08 | 41.17359 | 2.90516 | 37163 ft | 439 kts | 103° |
| 2026-04-25 10:08 | 41.16005 | 2.98411 | 37165 ft | 439 kts | 103° |
| 2026-04-25 10:09 | 41.14642 | 3.06313 | 37148 ft | 440 kts | 103° |
| 2026-04-25 10:09 | 41.13270 | 3.14252 | 37137 ft | 442 kts | 103° |
| 2026-04-25 10:10 | 41.11887 | 3.22219 | 37139 ft | 444 kts | 103° |
| 2026-04-25 10:10 | 41.10490 | 3.30209 | 37142 ft | 445 kts | 103° |
| 2026-04-25 10:11 | 41.09091 | 3.38149 | 37146 ft | 446 kts | 103° |
| 2026-04-25 10:11 | 41.07681 | 3.46153 | 37149 ft | 446 kts | 104° |
| 2026-04-25 10:12 | 41.06267 | 3.54161 | 37166 ft | 446 kts | 104° |
| 2026-04-25 10:13 | 41.04139 | 3.66168 | 37168 ft | 446 kts | 103° |
| 2026-04-25 10:13 | 41.02706 | 3.74165 | 37171 ft | 446 kts | 104° |
| 2026-04-25 10:14 | 41.01266 | 3.82160 | 37173 ft | 446 kts | 104° |
| 2026-04-25 10:14 | 40.99826 | 3.90155 | 37170 ft | 447 kts | 103° |
| 2026-04-25 10:15 | 40.98376 | 3.98149 | 37169 ft | 447 kts | 104° |
| 2026-04-25 10:15 | 40.96914 | 4.06143 | 37171 ft | 447 kts | 104° |
| 2026-04-25 10:16 | 40.95451 | 4.14146 | 37174 ft | 447 kts | 104° |
| 2026-04-25 10:16 | 40.93985 | 4.22134 | 37176 ft | 447 kts | 103° |
| 2026-04-25 10:17 | 40.92752 | 4.28829 | 37174 ft | 447 kts | 103° |
| 2026-04-25 10:17 | 40.91275 | 4.36816 | 37173 ft | 447 kts | 103° |
| 2026-04-25 10:18 | 40.89782 | 4.44790 | 37175 ft | 447 kts | 103° |
| 2026-04-25 10:18 | 40.88288 | 4.52765 | 37175 ft | 447 kts | 103° |
| 2026-04-25 10:19 | 40.86801 | 4.60738 | 37178 ft | 447 kts | 103° |
| 2026-04-25 10:19 | 40.85495 | 4.68752 | 37175 ft | 446 kts | 96° |
| 2026-04-25 10:20 | 40.84769 | 4.76827 | 37170 ft | 446 kts | 96° |
| 2026-04-25 10:20 | 40.84010 | 4.85005 | 37169 ft | 446 kts | 96° |
| 2026-04-25 10:21 | 40.83249 | 4.93129 | 37169 ft | 446 kts | 96° |
| 2026-04-25 10:21 | 40.82489 | 5.01201 | 37179 ft | 446 kts | 96° |
| 2026-04-25 10:22 | 40.81719 | 5.09327 | 37183 ft | 446 kts | 97° |
| 2026-04-25 10:22 | 40.80941 | 5.17445 | 37181 ft | 446 kts | 97° |
| 2026-04-25 10:23 | 40.80161 | 5.25562 | 37181 ft | 446 kts | 96° |
| 2026-04-25 10:23 | 40.79380 | 5.33677 | 37181 ft | 446 kts | 97° |
| 2026-04-25 10:24 | 40.78587 | 5.41789 | 37184 ft | 446 kts | 97° |
| 2026-04-25 10:24 | 40.77783 | 5.49905 | 37184 ft | 446 kts | 97° |
| 2026-04-25 10:25 | 40.76972 | 5.58023 | 37180 ft | 446 kts | 97° |
| 2026-04-25 10:25 | 40.76158 | 5.66137 | 37181 ft | 446 kts | 97° |
| 2026-04-25 10:26 | 40.75353 | 5.74255 | 37185 ft | 447 kts | 97° |
| 2026-04-25 10:26 | 40.74540 | 5.82375 | 37185 ft | 447 kts | 97° |
| 2026-04-25 10:27 | 40.73705 | 5.90494 | 37182 ft | 447 kts | 97° |
| 2026-04-25 10:27 | 40.72866 | 5.98613 | 37183 ft | 447 kts | 97° |
| 2026-04-25 10:28 | 40.72021 | 6.06735 | 37186 ft | 447 kts | 97° |
| 2026-04-25 10:28 | 40.71170 | 6.14853 | 37183 ft | 447 kts | 97° |
| 2026-04-25 10:29 | 40.70322 | 6.22971 | 37182 ft | 447 kts | 97° |
| 2026-04-25 10:29 | 40.69463 | 6.31085 | 37184 ft | 447 kts | 97° |
| 2026-04-25 10:30 | 40.68601 | 6.39200 | 37184 ft | 447 kts | 97° |
| 2026-04-25 10:30 | 40.67734 | 6.47311 | 37188 ft | 447 kts | 97° |
| 2026-04-25 10:31 | 40.66854 | 6.55426 | 37185 ft | 447 kts | 97° |
| 2026-04-25 10:31 | 40.65970 | 6.63537 | 37182 ft | 448 kts | 97° |
| 2026-04-25 10:32 | 40.65084 | 6.71654 | 37180 ft | 448 kts | 97° |
| 2026-04-25 10:32 | 40.64189 | 6.79770 | 37180 ft | 448 kts | 97° |
| 2026-04-25 10:33 | 40.63290 | 6.87828 | 37185 ft | 448 kts | 97° |
| 2026-04-25 10:33 | 40.62385 | 6.95941 | 37185 ft | 448 kts | 97° |
| 2026-04-25 10:34 | 40.61471 | 7.04051 | 37182 ft | 448 kts | 97° |
| 2026-04-25 10:34 | 40.60545 | 7.12159 | 37182 ft | 448 kts | 97° |
| 2026-04-25 10:35 | 40.59620 | 7.20265 | 37185 ft | 448 kts | 97° |
| 2026-04-25 10:35 | 40.58701 | 7.28368 | 37179 ft | 447 kts | 97° |
| 2026-04-25 10:36 | 40.57770 | 7.36455 | 37177 ft | 447 kts | 98° |
| 2026-04-25 10:36 | 40.56828 | 7.44545 | 37175 ft | 447 kts | 97° |
| 2026-04-25 10:37 | 40.56776 | 7.52671 | 37170 ft | 445 kts | 82° |
| 2026-04-25 10:37 | 40.57490 | 7.60751 | 37176 ft | 445 kts | 82° |
| 2026-04-25 10:38 | 40.58183 | 7.68841 | 37175 ft | 445 kts | 82° |
| 2026-04-25 10:38 | 40.58871 | 7.76930 | 37172 ft | 445 kts | 82° |
| 2026-04-25 10:39 | 40.59560 | 7.85022 | 37167 ft | 445 kts | 82° |
| 2026-04-25 10:39 | 40.60245 | 7.93123 | 37162 ft | 445 kts | 83° |
| 2026-04-25 10:40 | 40.60922 | 8.01230 | 37165 ft | 446 kts | 82° |
| 2026-04-25 10:40 | 40.61592 | 8.09339 | 37157 ft | 446 kts | 83° |
| 2026-04-25 10:41 | 40.62255 | 8.17444 | 37153 ft | 445 kts | 83° |
| 2026-04-25 10:41 | 40.62422 | 8.25576 | 37149 ft | 446 kts | 96° |
| 2026-04-25 10:42 | 40.61061 | 8.33552 | 37151 ft | 447 kts | 103° |
| 2026-04-25 10:42 | 40.59548 | 8.41493 | 37149 ft | 448 kts | 103° |
| 2026-04-25 10:43 | 40.58033 | 8.49439 | 37150 ft | 448 kts | 103° |
| 2026-04-25 10:43 | 40.56496 | 8.57381 | 37146 ft | 448 kts | 103° |
| 2026-04-25 10:44 | 40.54962 | 8.65267 | 37140 ft | 448 kts | 103° |
| 2026-04-25 10:44 | 40.53419 | 8.73206 | 37150 ft | 448 kts | 103° |
| 2026-04-25 10:45 | 40.51868 | 8.81142 | 37148 ft | 448 kts | 103° |
| 2026-04-25 10:45 | 40.50311 | 8.89081 | 37147 ft | 448 kts | 103° |
| 2026-04-25 10:46 | 40.48752 | 8.97016 | 37145 ft | 448 kts | 103° |
| 2026-04-25 10:46 | 40.47186 | 9.04942 | 37145 ft | 449 kts | 103° |
| 2026-04-25 10:47 | 40.45615 | 9.12870 | 37148 ft | 449 kts | 103° |
| 2026-04-25 10:47 | 40.44042 | 9.20792 | 37148 ft | 448 kts | 104° |
| 2026-04-25 10:48 | 40.42456 | 9.28712 | 37146 ft | 448 kts | 104° |
| 2026-04-25 10:48 | 40.40861 | 9.36620 | 37145 ft | 449 kts | 104° |
| 2026-04-25 10:49 | 40.39263 | 9.44533 | 37153 ft | 449 kts | 104° |
| 2026-04-25 10:49 | 40.37671 | 9.52441 | 37160 ft | 449 kts | 104° |
| 2026-04-25 10:50 | 40.36068 | 9.60350 | 37164 ft | 448 kts | 104° |
| 2026-04-25 10:50 | 40.34456 | 9.68245 | 37159 ft | 448 kts | 104° |
| 2026-04-25 10:51 | 40.32840 | 9.76140 | 37168 ft | 448 kts | 104° |
| 2026-04-25 10:51 | 40.31217 | 9.84029 | 37184 ft | 448 kts | 104° |
| 2026-04-25 10:52 | 40.29587 | 9.91914 | 37167 ft | 448 kts | 104° |
| 2026-04-25 10:52 | 40.27962 | 9.99792 | 37184 ft | 448 kts | 104° |
| 2026-04-25 10:53 | 40.26337 | 10.07663 | 37176 ft | 448 kts | 104° |
| 2026-04-25 10:53 | 40.24696 | 10.15528 | 37177 ft | 448 kts | 104° |
| 2026-04-25 10:54 | 40.23044 | 10.23384 | 37180 ft | 448 kts | 105° |
| 2026-04-25 10:54 | 40.21387 | 10.31227 | 37178 ft | 447 kts | 105° |
| 2026-04-25 10:55 | 40.19737 | 10.39066 | 37175 ft | 447 kts | 105° |
| 2026-04-25 10:55 | 40.18089 | 10.46896 | 37181 ft | 446 kts | 105° |
| 2026-04-25 10:56 | 40.16435 | 10.54717 | 37173 ft | 446 kts | 105° |
| 2026-04-25 10:56 | 40.14763 | 10.62524 | 37181 ft | 446 kts | 105° |
| 2026-04-25 10:57 | 40.13091 | 10.70324 | 37179 ft | 446 kts | 105° |
| 2026-04-25 10:57 | 40.11426 | 10.78128 | 37174 ft | 446 kts | 105° |
| 2026-04-25 10:58 | 40.09759 | 10.85917 | 37166 ft | 446 kts | 105° |
| 2026-04-25 10:58 | 40.08072 | 10.93706 | 37172 ft | 446 kts | 105° |
| 2026-04-25 10:59 | 40.06386 | 11.01493 | 37175 ft | 446 kts | 105° |
| 2026-04-25 10:59 | 40.04701 | 11.09217 | 37170 ft | 446 kts | 105° |
| 2026-04-25 11:00 | 40.02998 | 11.16993 | 37174 ft | 446 kts | 105° |
| 2026-04-25 11:00 | 40.01294 | 11.24765 | 37172 ft | 446 kts | 105° |
| 2026-04-25 11:01 | 39.99589 | 11.32538 | 37176 ft | 446 kts | 105° |
| 2026-04-25 11:01 | 39.97880 | 11.40304 | 37174 ft | 445 kts | 105° |
| 2026-04-25 11:02 | 39.96160 | 11.48063 | 37178 ft | 445 kts | 105° |
| 2026-04-25 11:02 | 39.94729 | 11.54504 | 37170 ft | 445 kts | 105° |
| 2026-04-25 11:03 | 39.93002 | 11.62253 | 37170 ft | 445 kts | 105° |
| 2026-04-25 11:03 | 39.91273 | 11.69998 | 37185 ft | 445 kts | 105° |
| 2026-04-25 11:04 | 39.89534 | 11.77728 | 37171 ft | 445 kts | 106° |
| 2026-04-25 11:04 | 39.87505 | 11.85313 | 37178 ft | 444 kts | 117° |
| 2026-04-25 11:05 | 39.83820 | 11.91733 | 37178 ft | 445 kts | 136° |
| 2026-04-25 11:05 | 39.78867 | 11.96575 | 37171 ft | 446 kts | 144° |
| 2026-04-25 11:06 | 39.73792 | 12.01229 | 37169 ft | 447 kts | 144° |
| 2026-04-25 11:06 | 39.68717 | 12.05900 | 37170 ft | 447 kts | 143° |
| 2026-04-25 11:07 | 39.63645 | 12.10566 | 37171 ft | 447 kts | 143° |
| 2026-04-25 11:07 | 39.58570 | 12.15219 | 37171 ft | 447 kts | 144° |
| 2026-04-25 11:08 | 39.53490 | 12.19867 | 37170 ft | 447 kts | 144° |
| 2026-04-25 11:08 | 39.48402 | 12.24496 | 37169 ft | 447 kts | 144° |
| 2026-04-25 11:09 | 39.43310 | 12.29115 | 37166 ft | 447 kts | 144° |
| 2026-04-25 11:09 | 39.38227 | 12.33742 | 37166 ft | 447 kts | 144° |
| 2026-04-25 11:10 | 39.33136 | 12.38359 | 37158 ft | 447 kts | 144° |
| 2026-04-25 11:10 | 39.28035 | 12.42971 | 37172 ft | 448 kts | 144° |
| 2026-04-25 11:11 | 39.22937 | 12.47581 | 37175 ft | 448 kts | 144° |
| 2026-04-25 11:11 | 39.17866 | 12.52154 | 37176 ft | 448 kts | 144° |
| 2026-04-25 11:12 | 39.12760 | 12.56754 | 37167 ft | 448 kts | 144° |
| 2026-04-25 11:12 | 39.07658 | 12.61344 | 37167 ft | 448 kts | 144° |
| 2026-04-25 11:13 | 39.02543 | 12.65926 | 37163 ft | 448 kts | 144° |
| 2026-04-25 11:13 | 38.97433 | 12.70508 | 37162 ft | 448 kts | 144° |
| 2026-04-25 11:14 | 38.92317 | 12.75085 | 37159 ft | 448 kts | 144° |
| 2026-04-25 11:14 | 38.87198 | 12.79648 | 37167 ft | 448 kts | 144° |
| 2026-04-25 11:15 | 38.82072 | 12.84206 | 37159 ft | 448 kts | 144° |
| 2026-04-25 11:15 | 38.76949 | 12.88762 | 37154 ft | 448 kts | 144° |
| 2026-04-25 11:16 | 38.69266 | 12.95587 | 37154 ft | 448 kts | 144° |
| 2026-04-25 11:16 | 38.64134 | 13.00126 | 37153 ft | 449 kts | 144° |
| 2026-04-25 11:17 | 38.58997 | 13.04663 | 37147 ft | 449 kts | 144° |
| 2026-04-25 11:17 | 38.53850 | 13.09203 | 37150 ft | 450 kts | 144° |
| 2026-04-25 11:18 | 38.48703 | 13.13746 | 37163 ft | 450 kts | 144° |
| 2026-04-25 11:18 | 38.43547 | 13.18279 | 37162 ft | 450 kts | 144° |
| 2026-04-25 11:19 | 38.38387 | 13.22796 | 37161 ft | 450 kts | 144° |
| 2026-04-25 11:19 | 38.33226 | 13.27320 | 37147 ft | 451 kts | 144° |
| 2026-04-25 11:20 | 38.28053 | 13.31846 | 37144 ft | 451 kts | 144° |
| 2026-04-25 11:20 | 38.22873 | 13.36375 | 36721 ft | 451 kts | 144° |
| 2026-04-25 11:21 | 38.20279 | 13.38637 | 35952 ft | 453 kts | 144° |
| 2026-04-25 11:21 | 38.17715 | 13.40868 | 35186 ft | 454 kts | 144° |
| 2026-04-25 11:21 | 38.15093 | 13.43146 | 34302 ft | 458 kts | 144° |
| 2026-04-25 11:21 | 38.12454 | 13.45439 | 33447 ft | 459 kts | 144° |
| 2026-04-25 11:22 | 38.09805 | 13.47736 | 32410 ft | 463 kts | 144° |
| 2026-04-25 11:22 | 38.08008 | 13.49291 | 31912 ft | 461 kts | 144° |
| 2026-04-25 11:22 | 38.04458 | 13.52361 | 30385 ft | 458 kts | 143° |
| 2026-04-25 11:22 | 38.01850 | 13.54617 | 29258 ft | 449 kts | 143° |
| 2026-04-25 11:23 | 37.99298 | 13.56828 | 28189 ft | 439 kts | 143° |
| 2026-04-25 11:23 | 37.96800 | 13.58988 | 27146 ft | 433 kts | 144° |
| 2026-04-25 11:23 | 37.94297 | 13.61152 | 26015 ft | 439 kts | 144° |
| 2026-04-25 11:23 | 37.91822 | 13.63376 | 24966 ft | 445 kts | 139° |
| 2026-04-25 11:24 | 37.89563 | 13.66027 | 24205 ft | 441 kts | 131° |
| 2026-04-25 11:24 | 37.87638 | 13.69043 | 23359 ft | 440 kts | 123° |
| 2026-04-25 11:24 | 37.86095 | 13.72359 | 22574 ft | 435 kts | 115° |
| 2026-04-25 11:24 | 37.84921 | 13.75861 | 21851 ft | 431 kts | 110° |
| 2026-04-25 11:25 | 37.83820 | 13.79373 | 21137 ft | 428 kts | 110° |
| 2026-04-25 11:25 | 37.82724 | 13.82864 | 20438 ft | 426 kts | 110° |
| 2026-04-25 11:25 | 37.81630 | 13.86330 | 19769 ft | 423 kts | 110° |
| 2026-04-25 11:25 | 37.80538 | 13.89780 | 19084 ft | 422 kts | 110° |
| 2026-04-25 11:26 | 37.79449 | 13.93219 | 18419 ft | 420 kts | 110° |
| 2026-04-25 11:26 | 37.78368 | 13.96634 | 17739 ft | 417 kts | 110° |
| 2026-04-25 11:26 | 37.77299 | 14.00022 | 17135 ft | 412 kts | 110° |
| 2026-04-25 11:26 | 37.76250 | 14.03369 | 16538 ft | 408 kts | 110° |
| 2026-04-25 11:27 | 37.75218 | 14.06685 | 15983 ft | 403 kts | 110° |
| 2026-04-25 11:27 | 37.74199 | 14.09966 | 15426 ft | 399 kts | 110° |
| 2026-04-25 11:27 | 37.73188 | 14.13215 | 14901 ft | 395 kts | 110° |
| 2026-04-25 11:27 | 37.72508 | 14.15391 | 14549 ft | 393 kts | 110° |
| 2026-04-25 11:28 | 37.71182 | 14.19621 | 13819 ft | 390 kts | 110° |
| 2026-04-25 11:28 | 37.70186 | 14.22790 | 13251 ft | 387 kts | 110° |
| 2026-04-25 11:28 | 37.69198 | 14.25931 | 12657 ft | 384 kts | 110° |
| 2026-04-25 11:28 | 37.68215 | 14.29050 | 12064 ft | 381 kts | 110° |
| 2026-04-25 11:29 | 37.67241 | 14.32144 | 11460 ft | 378 kts | 110° |
| 2026-04-25 11:29 | 37.66278 | 14.35192 | 11206 ft | 366 kts | 110° |
| 2026-04-25 11:29 | 37.65355 | 14.38108 | 11080 ft | 351 kts | 110° |
| 2026-04-25 11:29 | 37.64468 | 14.40906 | 10955 ft | 337 kts | 110° |
| 2026-04-25 11:30 | 37.63616 | 14.43598 | 10827 ft | 324 kts | 110° |
| 2026-04-25 11:30 | 37.62794 | 14.46195 | 10706 ft | 313 kts | 110° |
| 2026-04-25 11:30 | 37.62002 | 14.48701 | 10575 ft | 303 kts | 110° |
| 2026-04-25 11:30 | 37.61232 | 14.51139 | 10392 ft | 296 kts | 110° |
| 2026-04-25 11:31 | 37.60468 | 14.53545 | 10311 ft | 295 kts | 110° |
| 2026-04-25 11:31 | 37.59702 | 14.55950 | 10205 ft | 295 kts | 110° |
| 2026-04-25 11:31 | 37.58940 | 14.58344 | 10063 ft | 295 kts | 110° |
| 2026-04-25 11:31 | 37.58173 | 14.60757 | 9604 ft | 297 kts | 111° |
| 2026-04-25 11:32 | 37.57102 | 14.62953 | 9153 ft | 299 kts | 136° |
| 2026-04-25 11:32 | 37.55283 | 14.64175 | 8698 ft | 300 kts | 169° |
| 2026-04-25 11:32 | 37.53235 | 14.64032 | 8334 ft | 296 kts | 197° |
| 2026-04-25 11:32 | 37.51292 | 14.63176 | 7923 ft | 296 kts | 200° |
| 2026-04-25 11:33 | 37.49314 | 14.62469 | 7512 ft | 295 kts | 191° |
| 2026-04-25 11:33 | 37.47278 | 14.62350 | 7042 ft | 296 kts | 167° |
| 2026-04-25 11:33 | 37.45408 | 14.63372 | 6627 ft | 293 kts | 147° |
| 2026-04-25 11:33 | 37.43957 | 14.65105 | 6207 ft | 286 kts | 118° |
| 2026-04-25 11:34 | 37.43399 | 14.67370 | 5849 ft | 269 kts | 94° |
| 2026-04-25 11:34 | 37.43446 | 14.69647 | 5514 ft | 254 kts | 83° |
| 2026-04-25 11:34 | 37.43667 | 14.71797 | 5189 ft | 243 kts | 82° |
| 2026-04-25 11:34 | 37.43869 | 14.73899 | 4865 ft | 241 kts | 83° |
| 2026-04-25 11:35 | 37.44053 | 14.75992 | 4533 ft | 240 kts | 83° |
| 2026-04-25 11:35 | 37.44232 | 14.78069 | 4211 ft | 238 kts | 84° |
| 2026-04-25 11:35 | 37.44411 | 14.80131 | 3891 ft | 236 kts | 84° |
| 2026-04-25 11:35 | 37.44587 | 14.82166 | 3651 ft | 233 kts | 84° |
| 2026-04-25 11:36 | 37.44759 | 14.84153 | 3372 ft | 223 kts | 84° |
| 2026-04-25 11:36 | 37.44919 | 14.86009 | 3090 ft | 205 kts | 84° |
| 2026-04-25 11:36 | 37.45067 | 14.87728 | 2813 ft | 191 kts | 84° |
| 2026-04-25 11:36 | 37.45207 | 14.89352 | 2558 ft | 182 kts | 84° |
| 2026-04-25 11:37 | 37.45338 | 14.90886 | 2343 ft | 171 kts | 85° |
| 2026-04-25 11:37 | 37.45463 | 14.92345 | 2132 ft | 165 kts | 84° |
| 2026-04-25 11:37 | 37.45585 | 14.93774 | 1898 ft | 162 kts | 85° |
| 2026-04-25 11:37 | 37.45705 | 14.95179 | 1675 ft | 161 kts | 86° |
| 2026-04-25 11:38 | 37.45824 | 14.96571 | 1454 ft | 159 kts | 85° |
| 2026-04-25 11:38 | 37.45942 | 14.97960 | 1258 ft | 161 kts | 86° |
| 2026-04-25 11:38 | 37.46061 | 14.99355 | 1042 ft | 159 kts | 88° |
| 2026-04-25 11:38 | 37.46177 | 15.00731 | 794 ft | 157 kts | 87° |
| 2026-04-25 11:39 | 37.46307 | 15.02093 | 595 ft | 151 kts | 82° |
| 2026-04-25 11:39 | 37.46418 | 15.03347 | 371 ft | 138 kts | 88° |
| 2026-04-25 11:39 | 37.46503 | 15.04530 | 199 ft | 134 kts | 83° |
| 2026-04-25 11:39 | 37.46605 | 15.05674 | 47 ft | 128 kts | 84° |
| 2026-04-25 11:40 | 37.46681 | 15.06596 | 30 ft | 69 kts | 84° |
| 2026-04-25 11:40 | 37.46713 | 15.06896 | 29 ft | 18 kts | 58° |
| 2026-04-25 11:40 | 37.46804 | 15.06900 | 30 ft | 9 kts | 338° |
| 2026-04-25 11:40 | 37.46852 | 15.06852 | 25 ft | 8 kts | 293° |
| 2026-04-25 11:41 | 37.46857 | 15.06790 | 26 ft | 6 kts | 264° |
| 2026-04-25 11:41 | 37.46854 | 15.06750 | 27 ft | 7 kts | 263° |
| 2026-04-25 11:41 | 37.46848 | 15.06687 | 28 ft | 6 kts | 263° |
| 2026-04-25 11:41 | 37.46844 | 15.06638 | 28 ft | 5 kts | 263° |
| 2026-04-25 11:42 | 37.46856 | 15.06604 | 28 ft | 4 kts | 322° |
| 2026-04-25 11:42 | 37.46882 | 15.06608 | 27 ft | 6 kts | 13° |
| 2026-04-25 11:42 | 37.46925 | 15.06625 | 27 ft | 0 kts | 18° |